Big Springs, South Dakota
Current Conditions -  °F | °C
As of 1:15 AM on Friday 31 Oct 2014 (Local Time) from KLRJ Reporting Station
Few Clouds Few Clouds  
Wind Chill: 22°   Ceiling: Unl
Heat Index: 32°   Visibility: 10mi
Dew Point: 21°   Wind: 15mph
Humidity: 64%   Direction: 350°N
Pressure: 30.48"   Gusts: 22mph
Location:  42.9925°N, 96.6362°W
Report Text: KLRJ 310615Z AUTO 35013G19KT 10SM FEW033 M00/M06 A3048 RMK AO2
Loading
Personal Weather Stations






























Interactive Weather Map
Tropical Storm Tracking
New forecast layout! Learn more

10-Day Weather Forecast

Advertisements
Track Severe Weather on mobile